createdAt,value
2022-10-17T00:00:17.124Z,72.89
2022-10-17T00:02:43.735Z,72.95
2022-10-17T00:05:11.906Z,73.15
2022-10-17T00:07:38.574Z,73.18
2022-10-17T00:10:07.538Z,73.27
2022-10-17T00:12:34.445Z,73.12
2022-10-17T00:15:03.571Z,73.51
2022-10-17T00:17:30.541Z,73.68
2022-10-17T00:19:59.424Z,73.45
2022-10-17T00:22:26.709Z,73.33
2022-10-17T00:24:53.488Z,73.33
2022-10-17T00:27:20.090Z,73.40
2022-10-17T00:29:52.141Z,73.72
2022-10-17T00:32:19.875Z,73.57
2022-10-17T00:34:46.791Z,73.62
2022-10-17T00:37:13.390Z,73.35
2022-10-17T00:39:40.380Z,73.72
2022-10-17T00:42:07.111Z,73.63
2022-10-17T00:44:33.835Z,73.94
2022-10-17T00:47:04.094Z,73.89
2022-10-17T00:49:53.229Z,73.82
2022-10-17T00:52:22.204Z,73.74
2022-10-17T00:54:54.405Z,74.15
2022-10-17T00:57:21.094Z,73.91
2022-10-17T00:59:51.886Z,73.62
2022-10-17T01:02:20.898Z,73.67
2022-10-17T01:04:49.362Z,73.74
2022-10-17T01:07:16.095Z,74.17
2022-10-17T01:09:43.940Z,74.02
2022-10-17T01:12:23.355Z,74.09
2022-10-17T01:15:08.710Z,73.91
2022-10-17T01:17:54.278Z,74.23
2022-10-17T01:20:36.488Z,74.15
2022-10-17T01:23:29.416Z,74.01
2022-10-17T01:26:34.640Z,73.97
2022-10-17T01:29:16.553Z,74.01
2022-10-17T01:31:53.350Z,74.18
2022-10-17T01:34:36.207Z,74.29
2022-10-17T01:37:07.198Z,74.13
2022-10-17T01:39:46.965Z,74.60
2022-10-17T01:42:27.355Z,74.19
2022-10-17T01:45:06.409Z,74.42
2022-10-17T01:47:34.090Z,74.55
2022-10-17T01:50:07.120Z,74.44
2022-10-17T01:52:42.676Z,74.65
2022-10-17T01:55:14.510Z,74.65
2022-10-17T01:57:46.142Z,74.89
2022-10-17T02:00:15.757Z,74.71
2022-10-17T02:02:44.065Z,74.55
2022-10-17T02:05:10.854Z,74.47
2022-10-17T02:07:39.705Z,74.51
2022-10-17T02:10:12.187Z,74.66
2022-10-17T02:13:29.254Z,74.84
2022-10-17T02:16:21.819Z,74.56
2022-10-17T02:19:26.242Z,74.70
2022-10-17T02:22:41.593Z,74.56
2022-10-17T02:25:31.852Z,74.65
2022-10-17T02:28:19.366Z,74.44
2022-10-17T02:30:53.849Z,74.21
2022-10-17T02:33:32.036Z,74.71
2022-10-17T02:36:03.322Z,74.64
2022-10-17T02:38:30.758Z,74.83
2022-10-17T02:40:57.702Z,75.02
2022-10-17T02:43:24.575Z,74.84
2022-10-17T02:45:52.864Z,74.72
2022-10-17T02:48:36.682Z,74.64
2022-10-17T02:51:08.114Z,74.90
2022-10-17T02:53:41.997Z,74.80
2022-10-17T02:56:18.358Z,74.63
2022-10-17T02:58:49.119Z,74.99
2022-10-17T03:01:16.677Z,74.94
2022-10-17T03:03:43.407Z,75.11
2022-10-17T03:06:10.315Z,75.10
2022-10-17T03:11:04.557Z,75.36
2022-10-17T03:13:34.956Z,75.06
2022-10-17T03:16:06.284Z,75.40
2022-10-17T03:18:32.997Z,75.43
2022-10-17T03:21:01.199Z,75.31
2022-10-17T03:23:28.193Z,75.40
2022-10-17T03:25:55.090Z,75.82
2022-10-17T03:28:21.961Z,75.62
2022-10-17T03:30:48.598Z,75.78
2022-10-17T03:33:15.235Z,75.83
2022-10-17T03:35:41.876Z,76.05
2022-10-17T03:38:10.423Z,75.83
2022-10-17T03:40:37.054Z,75.96
2022-10-17T03:43:03.997Z,75.83
2022-10-17T03:45:30.640Z,76.22
2022-10-17T03:47:58.951Z,76.30
2022-10-17T03:50:25.753Z,76.22
2022-10-17T03:52:52.377Z,76.15
2022-10-17T03:55:19.179Z,76.55
2022-10-17T03:57:45.870Z,76.19
2022-10-17T04:00:14.507Z,76.09
2022-10-17T04:02:41.185Z,76.29
2022-10-17T04:05:11.408Z,76.33
2022-10-17T04:07:38.180Z,76.13
2022-10-17T04:10:05.777Z,75.99
2022-10-17T04:12:32.811Z,75.96
2022-10-17T04:14:59.688Z,75.98
2022-10-17T04:17:26.793Z,75.91
2022-10-17T04:19:53.469Z,75.64
2022-10-17T04:22:20.071Z,75.86
2022-10-17T04:24:46.913Z,75.75
2022-10-17T04:27:24.570Z,75.61
2022-10-17T04:29:51.264Z,75.38
2022-10-17T04:32:22.945Z,75.17
2022-10-17T04:35:09.803Z,75.12
2022-10-17T04:37:39.106Z,75.23
2022-10-17T04:40:12.219Z,75.34
2022-10-17T04:42:38.847Z,75.36
2022-10-17T04:45:06.299Z,75.47
2022-10-17T04:47:33.213Z,75.48
2022-10-17T04:50:00.023Z,75.53
2022-10-17T04:52:26.876Z,76.08
2022-10-17T04:54:53.917Z,76.16
2022-10-17T04:57:21.297Z,76.17
2022-10-17T04:59:55.866Z,76.01
2022-10-17T05:02:29.853Z,76.15
2022-10-17T05:04:56.857Z,76.09
2022-10-17T05:07:26.088Z,75.98
2022-10-17T05:10:13.628Z,76.26
2022-10-17T05:12:43.717Z,76.42
2022-10-17T05:15:10.698Z,76.76
2022-10-17T05:17:37.287Z,76.80
2022-10-17T05:20:05.470Z,76.85
2022-10-17T05:22:36.035Z,77.15
2022-10-17T05:25:05.358Z,77.26
2022-10-17T05:27:32.206Z,77.24
2022-10-17T05:29:58.807Z,77.65
2022-10-17T05:32:29.415Z,77.85
2022-10-17T05:34:56.104Z,77.83
2022-10-17T05:37:24.871Z,77.96
2022-10-17T05:39:54.358Z,78.07
2022-10-17T05:42:21.071Z,78.22
2022-10-17T05:44:47.839Z,78.17
2022-10-17T05:47:16.477Z,78.20
2022-10-17T05:49:48.619Z,78.37
2022-10-17T05:52:18.559Z,78.68
2022-10-17T05:54:56.947Z,78.71
2022-10-17T05:57:26.712Z,78.90
2022-10-17T05:59:53.971Z,78.94
2022-10-17T06:02:21.763Z,78.95
2022-10-17T06:04:49.302Z,79.17
2022-10-17T06:07:17.634Z,79.16
2022-10-17T06:12:14.683Z,79.07
2022-10-17T06:14:41.519Z,79.14
2022-10-17T06:17:12.117Z,79.16
2022-10-17T06:19:42.030Z,79.21
2022-10-17T06:22:08.651Z,79.39
2022-10-17T06:24:36.003Z,79.60
2022-10-17T06:27:09.350Z,79.77
2022-10-17T06:29:38.478Z,80.08
2022-10-17T06:32:08.629Z,80.01
2022-10-17T06:34:38.282Z,80.24
2022-10-17T06:37:04.941Z,80.15
2022-10-17T06:39:35.263Z,80.19
2022-10-17T06:42:06.032Z,80.48
2022-10-17T06:44:46.125Z,80.67
2022-10-17T06:47:20.037Z,80.72
2022-10-17T06:49:50.050Z,81.11
2022-10-17T06:52:40.635Z,81.26
2022-10-17T06:55:43.009Z,81.43
2022-10-17T06:58:39.618Z,81.50
2022-10-17T07:01:24.163Z,81.59
2022-10-17T07:03:54.955Z,81.74
2022-10-17T07:06:24.620Z,81.82
2022-10-17T07:08:52.480Z,81.96
2022-10-17T07:11:21.881Z,82.18
2022-10-17T07:13:51.075Z,82.31
2022-10-17T07:16:17.769Z,82.29
2022-10-17T07:18:51.588Z,82.51
2022-10-17T07:21:19.182Z,82.55
2022-10-17T07:23:45.826Z,82.77
2022-10-17T07:26:15.490Z,82.95
2022-10-17T07:28:47.075Z,83.14
2022-10-17T07:31:25.305Z,82.88
2022-10-17T07:33:51.991Z,82.92
2022-10-17T07:36:19.136Z,83.14
2022-10-17T07:38:46.334Z,83.22
2022-10-17T07:41:16.548Z,83.29
2022-10-17T07:43:46.590Z,83.33
2022-10-17T07:46:15.435Z,83.60
2022-10-17T07:48:42.127Z,83.63
2022-10-17T07:51:09.602Z,84.05
2022-10-17T07:53:37.342Z,84.10
2022-10-17T07:56:08.252Z,84.55
2022-10-17T07:58:35.490Z,84.57
2022-10-17T08:03:30.011Z,84.67
2022-10-17T08:06:01.021Z,84.86
2022-10-17T08:08:28.151Z,84.95
2022-10-17T08:10:56.343Z,85.12
2022-10-17T08:13:23.366Z,85.29
2022-10-17T08:15:55.791Z,85.50
2022-10-17T08:18:22.516Z,85.64
2022-10-17T08:20:49.092Z,85.70
2022-10-17T08:23:15.668Z,85.85
2022-10-17T08:25:42.265Z,86.02
2022-10-17T08:28:08.893Z,86.24
2022-10-17T08:30:35.935Z,86.33
2022-10-17T08:33:02.526Z,86.63
2022-10-17T08:35:29.212Z,86.39
2022-10-17T08:37:55.837Z,86.78
2022-10-17T08:40:35.560Z,86.61
2022-10-17T08:43:20.552Z,86.87
2022-10-17T08:46:01.009Z,87.27
2022-10-17T08:48:30.409Z,87.11
2022-10-17T08:51:05.485Z,87.31
2022-10-17T08:53:36.735Z,87.89
2022-10-17T08:56:19.525Z,87.77
2022-10-17T08:58:51.430Z,87.74
2022-10-17T09:01:32.921Z,88.10
2022-10-17T09:04:20.819Z,87.97
2022-10-17T09:06:58.737Z,88.51
2022-10-17T09:09:59.419Z,88.70
2022-10-17T09:13:05.341Z,89.04
2022-10-17T09:15:48.976Z,89.78
2022-10-17T09:18:22.032Z,90.15
2022-10-17T09:21:00.846Z,91.00
2022-10-17T09:23:37.997Z,90.72
2022-10-17T09:26:10.356Z,91.17
2022-10-17T09:28:41.562Z,91.75
2022-10-17T09:31:12.963Z,92.04
2022-10-17T09:33:55.658Z,92.20
2022-10-17T09:36:33.619Z,92.57
2022-10-17T09:39:03.403Z,93.11
2022-10-17T09:41:45.471Z,92.62
2022-10-17T09:44:23.211Z,92.86
2022-10-17T09:47:28.567Z,93.81
2022-10-17T09:49:55.621Z,93.90
2022-10-17T09:52:25.015Z,94.26
2022-10-17T09:54:54.796Z,94.76
2022-10-17T09:57:22.453Z,94.70
2022-10-17T10:00:07.141Z,94.65
2022-10-17T10:02:42.601Z,95.17
2022-10-17T10:05:20.536Z,96.10
2022-10-17T10:08:05.663Z,96.54
2022-10-17T10:10:32.673Z,97.38
2022-10-17T10:13:14.585Z,97.57
2022-10-17T10:15:45.608Z,98.08
2022-10-17T10:18:35.836Z,98.42
2022-10-17T10:21:10.107Z,98.91
2022-10-17T10:23:46.970Z,99.19
2022-10-17T10:26:30.353Z,100.00
2022-10-17T10:29:00.287Z,100.00
2022-10-17T10:31:45.181Z,100.00
2022-10-17T10:34:29.440Z,100.00
2022-10-17T10:37:03.012Z,100.00
2022-10-17T10:39:35.509Z,100.00
2022-10-17T10:42:05.786Z,100.00
2022-10-17T10:44:33.285Z,100.00
2022-10-17T10:47:29.724Z,100.00
2022-10-17T10:50:18.750Z,100.00
2022-10-17T10:52:50.825Z,100.00
2022-10-17T10:55:27.870Z,100.00
2022-10-17T10:58:03.839Z,100.00
2022-10-17T11:00:32.381Z,100.00
2022-10-17T11:03:16.501Z,100.00
2022-10-17T11:06:02.926Z,100.00
2022-10-17T11:08:48.217Z,100.00
2022-10-17T11:11:25.840Z,100.00
2022-10-17T11:14:17.353Z,100.00
2022-10-17T11:16:49.467Z,100.00
2022-10-17T11:19:31.273Z,100.00
2022-10-17T11:22:03.727Z,100.00
2022-10-17T11:24:37.354Z,100.00
2022-10-17T11:27:05.509Z,100.00
2022-10-17T11:29:40.106Z,100.00
2022-10-17T11:32:15.724Z,100.00
2022-10-17T11:34:56.008Z,100.00
2022-10-17T11:37:25.884Z,100.00
2022-10-17T11:40:31.674Z,100.00
2022-10-17T11:43:04.087Z,100.00
2022-10-17T11:45:35.395Z,100.00
2022-10-17T11:48:10.830Z,100.00
2022-10-17T11:53:33.459Z,100.00
2022-10-17T11:56:17.999Z,100.00
2022-10-17T11:58:47.995Z,100.00
2022-10-17T12:01:47.169Z,100.00
2022-10-17T12:04:22.498Z,100.00
2022-10-17T12:07:01.332Z,100.00
2022-10-17T12:09:34.237Z,100.00
2022-10-17T12:12:04.086Z,100.00
2022-10-17T12:14:33.694Z,100.00
2022-10-17T12:17:01.600Z,100.00
2022-10-17T12:19:33.919Z,100.00
2022-10-17T12:25:46.421Z,100.00
2022-10-17T12:28:15.798Z,100.00
2022-10-17T12:30:57.608Z,100.00
2022-10-17T12:33:35.009Z,100.00
2022-10-17T12:36:17.131Z,100.00
2022-10-17T12:38:49.913Z,100.00
2022-10-17T12:41:17.499Z,100.00
2022-10-17T12:43:44.786Z,100.00
2022-10-17T12:46:11.839Z,100.00
2022-10-17T12:48:38.443Z,100.00
2022-10-17T12:51:36.400Z,100.00
2022-10-17T12:54:15.247Z,100.00
2022-10-17T12:56:47.429Z,100.00
2022-10-17T12:59:24.220Z,100.00
2022-10-17T13:01:53.662Z,100.00
2022-10-17T13:04:20.598Z,100.00
2022-10-17T13:06:49.514Z,100.00
2022-10-17T13:09:23.703Z,100.00
2022-10-17T13:11:50.405Z,100.00
2022-10-17T13:14:19.293Z,100.00
2022-10-17T13:16:57.978Z,100.00
2022-10-17T13:19:42.099Z,100.00
2022-10-17T13:22:17.055Z,100.00
2022-10-17T13:24:44.095Z,100.00
2022-10-17T13:27:32.562Z,100.00
2022-10-17T13:30:01.565Z,100.00
2022-10-17T13:32:37.714Z,100.00
2022-10-17T13:35:12.683Z,100.00
2022-10-17T13:37:40.466Z,100.00
2022-10-17T13:40:30.833Z,100.00
2022-10-17T13:42:57.132Z,100.00
2022-10-17T13:45:35.099Z,100.00
2022-10-17T13:48:06.868Z,100.00
2022-10-17T13:50:44.555Z,100.00
2022-10-17T13:53:43.868Z,100.00
2022-10-17T13:56:29.651Z,100.00
2022-10-17T13:58:59.229Z,100.00
2022-10-17T14:01:28.436Z,100.00
2022-10-17T14:04:07.917Z,100.00
2022-10-17T14:06:43.940Z,100.00
2022-10-17T14:09:31.328Z,100.00
2022-10-17T14:12:06.775Z,100.00
2022-10-17T14:14:51.707Z,100.00
2022-10-17T14:17:26.427Z,100.00
2022-10-17T14:20:14.064Z,100.00
2022-10-17T14:22:44.556Z,100.00
2022-10-17T14:25:36.782Z,100.00
2022-10-17T14:28:13.844Z,100.00
2022-10-17T14:30:57.474Z,100.00
2022-10-17T14:33:30.185Z,99.49
2022-10-17T14:35:59.106Z,99.13
2022-10-17T14:38:26.167Z,97.48
2022-10-17T14:41:40.822Z,96.63
2022-10-17T14:44:02.957Z,97.83
2022-10-17T14:46:29.652Z,96.86
2022-10-17T14:49:02.267Z,96.07
2022-10-17T14:51:36.088Z,97.09
2022-10-17T14:54:29.739Z,98.48
2022-10-17T14:56:56.312Z,98.16
2022-10-17T14:59:51.995Z,96.92
2022-10-17T15:02:13.496Z,94.97
2022-10-17T15:04:40.276Z,92.61
2022-10-17T15:07:06.958Z,90.18
2022-10-17T15:09:33.660Z,87.84
2022-10-17T15:12:04.208Z,85.25
2022-10-17T15:14:30.829Z,84.48
2022-10-17T15:16:57.467Z,83.76
2022-10-17T15:19:24.049Z,83.88
2022-10-17T15:21:50.625Z,83.87
2022-10-17T15:24:17.282Z,83.07
2022-10-17T15:26:44.012Z,82.61
2022-10-17T15:29:15.325Z,81.94
2022-10-17T15:31:41.980Z,81.94
2022-10-17T15:34:08.560Z,82.12
2022-10-17T15:36:42.264Z,81.99
2022-10-17T15:39:09.941Z,81.90
2022-10-17T15:41:36.581Z,81.93
2022-10-17T15:44:03.195Z,82.15
2022-10-17T15:46:33.461Z,82.83
2022-10-17T15:49:09.639Z,83.00
2022-10-17T15:51:36.561Z,83.60
2022-10-17T15:54:03.341Z,83.74
2022-10-17T15:56:41.511Z,83.65
2022-10-17T15:59:15.190Z,84.69
2022-10-17T16:01:41.986Z,84.63
2022-10-17T16:04:14.786Z,84.73
2022-10-17T16:06:44.761Z,84.72
2022-10-17T16:09:11.374Z,85.52
2022-10-17T16:11:40.656Z,85.15
2022-10-17T16:14:11.419Z,84.78
2022-10-17T16:16:40.575Z,84.29
2022-10-17T16:19:07.933Z,84.21
2022-10-17T16:21:36.460Z,84.24
2022-10-17T16:24:03.981Z,84.10
2022-10-17T16:26:32.907Z,83.71
2022-10-17T16:29:02.748Z,83.38
2022-10-17T16:31:35.079Z,83.59
2022-10-17T16:34:03.114Z,83.38
2022-10-17T16:36:29.807Z,82.40
2022-10-17T16:38:56.395Z,81.72
2022-10-17T16:41:26.015Z,81.22
2022-10-17T16:43:55.252Z,81.63
2022-10-17T16:46:22.514Z,81.27
2022-10-17T16:48:49.281Z,81.16
2022-10-17T16:51:18.083Z,81.33
2022-10-17T16:53:50.307Z,81.20
2022-10-17T16:56:21.606Z,80.42
2022-10-17T16:58:48.980Z,80.13
2022-10-17T17:01:22.655Z,80.25
2022-10-17T17:03:49.857Z,79.67
2022-10-17T17:06:19.560Z,79.14
2022-10-17T17:08:46.396Z,79.02
2022-10-17T17:11:15.397Z,78.85
2022-10-17T17:13:42.078Z,78.74
2022-10-17T17:16:17.492Z,78.53
2022-10-17T17:18:45.966Z,78.54
2022-10-17T17:21:12.755Z,78.52
2022-10-17T17:23:40.775Z,78.45
2022-10-17T17:26:14.067Z,78.42
2022-10-17T17:28:42.775Z,78.35
2022-10-17T17:31:11.436Z,78.17
2022-10-17T17:33:39.267Z,78.16
2022-10-17T17:36:06.677Z,78.13
2022-10-17T17:38:34.905Z,78.07
2022-10-17T17:41:01.884Z,78.19
2022-10-17T17:43:28.851Z,77.96
2022-10-17T17:45:55.675Z,78.08
2022-10-17T17:48:22.311Z,77.92
2022-10-17T17:50:49.014Z,77.82
2022-10-17T17:53:16.464Z,77.89
2022-10-17T17:55:43.060Z,77.80
2022-10-17T17:58:11.266Z,77.81
2022-10-17T18:00:38.750Z,77.83
2022-10-17T18:03:05.496Z,77.46
2022-10-17T18:05:32.320Z,77.38
2022-10-17T18:07:58.940Z,77.20
2022-10-17T18:10:25.562Z,76.91
2022-10-17T18:12:52.258Z,76.87
2022-10-17T18:15:18.969Z,76.78
2022-10-17T18:17:45.634Z,76.63
2022-10-17T18:20:12.396Z,76.56
2022-10-17T18:22:39.006Z,76.57
2022-10-17T18:25:08.168Z,76.60
2022-10-17T18:27:34.815Z,76.63
2022-10-17T18:30:01.441Z,76.51
2022-10-17T18:32:31.136Z,76.46
2022-10-17T18:34:58.612Z,76.55
2022-10-17T18:37:27.623Z,76.43
2022-10-17T18:39:55.813Z,76.39
2022-10-17T18:42:22.455Z,76.42
2022-10-17T18:44:49.841Z,76.43
2022-10-17T18:47:16.425Z,76.51
2022-10-17T18:49:42.960Z,76.48
2022-10-17T18:52:09.616Z,76.44
2022-10-17T18:54:36.167Z,76.36
2022-10-17T18:57:03.079Z,76.49
2022-10-17T18:59:29.662Z,76.52
2022-10-17T19:01:56.348Z,76.38
2022-10-17T19:04:25.227Z,76.17
2022-10-17T19:06:51.847Z,76.14
2022-10-17T19:09:19.273Z,76.19
2022-10-17T19:11:45.971Z,76.06
2022-10-17T19:14:13.478Z,76.15
2022-10-17T19:16:42.945Z,76.09
2022-10-17T19:19:28.067Z,76.04
2022-10-17T19:21:54.907Z,75.97
2022-10-17T19:24:23.915Z,75.99
2022-10-17T19:26:53.454Z,75.80
2022-10-17T19:29:24.270Z,76.02
2022-10-17T19:31:51.160Z,75.77
2022-10-17T19:34:18.300Z,75.90
2022-10-17T19:36:44.963Z,75.72
2022-10-17T19:39:16.505Z,75.65
2022-10-17T19:41:46.955Z,75.69
2022-10-17T19:44:14.588Z,75.67
2022-10-17T19:46:48.960Z,75.57
2022-10-17T19:49:15.559Z,75.73
2022-10-17T19:51:42.465Z,75.54
2022-10-17T19:54:09.883Z,75.50
2022-10-17T19:56:38.037Z,75.67
2022-10-17T19:59:08.386Z,75.61
2022-10-17T20:01:38.729Z,75.64
2022-10-17T20:04:06.400Z,75.60
2022-10-17T20:06:33.569Z,75.57
2022-10-17T20:09:00.244Z,75.44
2022-10-17T20:11:28.134Z,75.44
2022-10-17T20:13:55.774Z,75.42
2022-10-17T20:16:32.319Z,75.59
2022-10-17T20:19:09.987Z,75.43
2022-10-17T20:21:37.308Z,75.39
2022-10-17T20:24:06.744Z,75.32
2022-10-17T20:26:39.099Z,75.36
2022-10-17T20:29:11.102Z,75.63
2022-10-17T20:31:38.701Z,75.43
2022-10-17T20:34:05.341Z,75.35
2022-10-17T20:36:32.360Z,75.34
2022-10-17T20:38:59.363Z,75.29
2022-10-17T20:41:26.534Z,75.25
2022-10-17T20:43:54.811Z,75.30
2022-10-17T20:46:35.985Z,75.38
2022-10-17T20:49:07.491Z,75.24
2022-10-17T20:51:34.818Z,75.37
2022-10-17T20:54:02.531Z,75.39
2022-10-17T20:56:30.867Z,75.20
2022-10-17T20:58:59.506Z,75.14
2022-10-17T21:01:26.901Z,75.14
2022-10-17T21:03:53.624Z,75.08
2022-10-17T21:06:20.903Z,75.13
2022-10-17T21:08:48.377Z,75.39
2022-10-17T21:11:19.726Z,75.20
2022-10-17T21:13:47.474Z,75.21
2022-10-17T21:16:16.439Z,75.06
2022-10-17T21:18:43.507Z,75.11
2022-10-17T21:21:11.260Z,75.03
2022-10-17T21:23:38.485Z,75.07
2022-10-17T21:26:07.113Z,74.94
2022-10-17T21:28:34.486Z,75.00
2022-10-17T21:31:11.402Z,75.11
2022-10-17T21:33:38.466Z,74.86
2022-10-17T21:36:08.348Z,74.90
2022-10-17T21:38:38.624Z,74.71
2022-10-17T21:41:06.367Z,74.75
2022-10-17T21:43:38.277Z,74.88
2022-10-17T21:46:06.894Z,74.83
2022-10-17T21:48:34.231Z,74.66
2022-10-17T21:51:06.693Z,74.64
2022-10-17T21:53:33.641Z,74.60
2022-10-17T21:56:06.034Z,74.61
2022-10-17T21:58:35.193Z,74.70
2022-10-17T22:01:10.345Z,74.60
2022-10-17T22:03:42.627Z,74.58
2022-10-17T22:09:01.173Z,74.60
2022-10-17T22:11:30.284Z,74.61
2022-10-17T22:14:07.839Z,74.58
2022-10-17T22:16:34.912Z,74.58
2022-10-17T22:19:06.136Z,74.53
2022-10-17T22:21:35.300Z,74.46
2022-10-17T22:24:05.663Z,74.38
2022-10-17T22:26:34.267Z,74.56
2022-10-17T22:29:01.245Z,74.45
2022-10-17T22:31:27.916Z,74.37
2022-10-17T22:33:54.598Z,74.25
2022-10-17T22:36:21.124Z,74.23
2022-10-17T22:38:47.750Z,74.29
2022-10-17T22:41:14.299Z,74.25
2022-10-17T22:43:46.836Z,74.25
2022-10-17T22:46:14.580Z,74.20
2022-10-17T22:48:41.563Z,74.23
2022-10-17T22:51:08.473Z,74.25
2022-10-17T22:53:37.223Z,74.34
2022-10-17T22:56:16.068Z,74.42
2022-10-17T22:58:42.737Z,74.36
2022-10-17T23:01:13.824Z,74.22
2022-10-17T23:03:40.575Z,74.26
2022-10-17T23:06:07.318Z,74.36
2022-10-17T23:08:34.035Z,74.29
2022-10-17T23:11:00.650Z,74.26
2022-10-17T23:13:29.620Z,74.33
2022-10-17T23:15:57.064Z,74.27
2022-10-17T23:18:25.354Z,74.32
2022-10-17T23:20:52.071Z,74.24
2022-10-17T23:23:19.346Z,74.31
2022-10-17T23:25:49.350Z,74.28
2022-10-17T23:28:16.210Z,74.18
2022-10-17T23:30:42.851Z,74.08
2022-10-17T23:33:11.896Z,74.04
2022-10-17T23:35:41.728Z,74.07
2022-10-17T23:38:08.637Z,74.03
2022-10-17T23:40:35.498Z,74.04
2022-10-17T23:43:03.350Z,74.05
2022-10-17T23:45:33.514Z,74.04
2022-10-17T23:48:04.611Z,74.08
2022-10-17T23:50:31.277Z,74.16
2022-10-17T23:52:57.836Z,74.21
2022-10-17T23:55:26.697Z,74.32
2022-10-17T23:57:53.330Z,74.20
